Brandon, Colorado
Current Conditions -  °F | °C
As of 8:53 AM on Monday 26 Jan 2015 (Local Time) from KLAA Reporting Station
Clear Clear  
Wind Chill: 35°   Ceiling: Unl
Heat Index: 42°   Visibility: 10mi
Dew Point: 30°   Wind: 13mph
Humidity: 62%   Direction: 250°WSW
Pressure: 30.24"   Gusts: NA
Location:  38.4343°N, 102.505°W
Report Text: KLAA 261553Z AUTO 25011KT 10SM CLR 06/M01 A3024 RMK AO2 SLP245 T00561011
Loading
Personal Weather Stations






























Interactive Weather Map New forecast layout! Learn more

10-Day Weather Forecast

Advertisements
Track Severe Weather on mobile